createdAt,value
2019-05-23T00:01:22.769Z,12.60
2019-05-23T00:02:43.986Z,12.60
2019-05-23T00:03:54.449Z,12.60
2019-05-23T00:05:12.938Z,12.60
2019-05-23T00:06:20.188Z,12.60
2019-05-23T00:07:25.432Z,12.70
2019-05-23T00:08:30.768Z,12.70
2019-05-23T00:09:33.410Z,12.70
2019-05-23T00:10:42.224Z,12.70
2019-05-23T00:11:46.499Z,12.70
2019-05-23T00:12:59.209Z,12.60
2019-05-23T00:14:06.727Z,12.60
2019-05-23T00:15:20.294Z,12.50
2019-05-23T00:16:23.162Z,12.50
2019-05-23T00:17:25.572Z,12.50
2019-05-23T00:18:28.681Z,12.50
2019-05-23T00:19:32.057Z,12.50
2019-05-23T00:20:35.062Z,12.50
2019-05-23T00:21:38.527Z,12.50
2019-05-23T00:22:43.632Z,12.50
2019-05-23T00:23:46.189Z,12.40
2019-05-23T00:24:49.761Z,12.40
2019-05-23T00:25:53.317Z,12.40
2019-05-23T00:26:56.919Z,12.40
2019-05-23T00:27:59.697Z,12.50
2019-05-23T00:29:09.924Z,12.50
2019-05-23T00:30:08.752Z,12.50
2019-05-23T00:31:25.466Z,12.50
2019-05-23T00:32:45.343Z,12.50
2019-05-23T00:33:48.265Z,12.50
2019-05-23T00:34:52.956Z,12.50
2019-05-23T00:35:56.153Z,12.50
2019-05-23T00:36:59.316Z,12.50
2019-05-23T00:38:03.680Z,12.60
2019-05-23T00:39:08.609Z,12.60
2019-05-23T00:40:12.232Z,12.50
2019-05-23T00:41:16.937Z,12.50
2019-05-23T00:42:21.268Z,12.50
2019-05-23T00:43:24.965Z,12.50
2019-05-23T00:44:30.032Z,12.50
2019-05-23T00:45:34.568Z,12.50
2019-05-23T00:46:37.486Z,12.40
2019-05-23T00:47:41.804Z,12.40
2019-05-23T00:48:45.295Z,12.40
2019-05-23T00:49:48.996Z,12.30
2019-05-23T00:50:52.116Z,12.30
2019-05-23T00:51:55.028Z,12.30
2019-05-23T00:52:58.766Z,12.30
2019-05-23T00:54:02.996Z,12.30
2019-05-23T00:55:07.684Z,12.30
2019-05-23T00:56:10.352Z,12.30
2019-05-23T00:57:13.657Z,12.30
2019-05-23T00:58:19.312Z,12.40
2019-05-23T00:59:27.199Z,12.30
2019-05-23T01:00:26.825Z,12.30
2019-05-23T01:01:31.273Z,12.40
2019-05-23T01:02:33.904Z,12.40
2019-05-23T01:03:37.623Z,12.30
2019-05-23T01:04:42.153Z,12.30
2019-05-23T01:05:44.792Z,12.30
2019-05-23T01:06:47.891Z,12.30
2019-05-23T01:07:52.020Z,12.30
2019-05-23T01:08:57.759Z,12.30
2019-05-23T01:10:01.086Z,12.30
2019-05-23T01:11:04.696Z,12.20
2019-05-23T01:12:07.966Z,12.30
2019-05-23T01:13:10.657Z,12.30
2019-05-23T01:14:13.407Z,12.30
2019-05-23T01:15:18.111Z,12.20
2019-05-23T01:16:21.456Z,12.20
2019-05-23T01:17:26.443Z,12.20
2019-05-23T01:18:28.927Z,12.20
2019-05-23T01:19:32.186Z,12.20
2019-05-23T01:20:49.572Z,12.20
2019-05-23T01:22:03.452Z,12.20
2019-05-23T01:23:08.765Z,12.10
2019-05-23T01:24:21.755Z,12.10
2019-05-23T01:25:25.369Z,12.10
2019-05-23T01:26:28.659Z,12.10
2019-05-23T01:27:31.578Z,12.10
2019-05-23T01:28:34.240Z,12.10
2019-05-23T01:29:39.034Z,12.10
2019-05-23T01:30:44.487Z,12.00
2019-05-23T01:31:49.141Z,12.00
2019-05-23T01:32:55.098Z,12.00
2019-05-23T01:33:57.685Z,12.00
2019-05-23T01:35:00.995Z,12.00
2019-05-23T01:36:08.525Z,12.00
2019-05-23T01:37:11.335Z,11.90
2019-05-23T01:38:15.576Z,11.90
2019-05-23T01:39:18.449Z,11.90
2019-05-23T01:40:21.102Z,11.90
2019-05-23T01:41:24.427Z,11.90
2019-05-23T01:42:27.650Z,11.90
2019-05-23T01:43:31.545Z,11.80
2019-05-23T01:44:35.276Z,11.90
2019-05-23T01:45:39.989Z,11.90
2019-05-23T01:46:42.683Z,11.90
2019-05-23T01:47:47.192Z,11.90
2019-05-23T01:48:49.674Z,11.90
2019-05-23T01:49:52.492Z,12.00
2019-05-23T01:50:54.927Z,12.00
2019-05-23T01:51:57.394Z,12.00
2019-05-23T01:52:59.791Z,12.00
2019-05-23T01:54:02.864Z,12.00
2019-05-23T01:55:07.527Z,12.00
2019-05-23T01:56:10.954Z,12.00
2019-05-23T01:57:13.850Z,12.00
2019-05-23T01:58:16.395Z,11.80
2019-05-23T01:59:19.428Z,11.90
2019-05-23T02:00:26.232Z,11.90
2019-05-23T02:01:29.230Z,12.00
2019-05-23T02:02:32.085Z,12.10
2019-05-23T02:03:36.089Z,12.10
2019-05-23T02:04:39.285Z,12.10
2019-05-23T02:05:42.157Z,12.20
2019-05-23T02:06:45.089Z,12.20
2019-05-23T02:07:48.741Z,12.10
2019-05-23T02:08:52.648Z,12.10
2019-05-23T02:09:55.498Z,12.10
2019-05-23T02:10:58.231Z,12.10
2019-05-23T02:12:02.663Z,12.00
2019-05-23T02:13:05.475Z,12.00
2019-05-23T02:14:08.069Z,12.00
2019-05-23T02:15:12.274Z,12.00
2019-05-23T02:16:14.654Z,12.00
2019-05-23T02:17:17.656Z,12.10
2019-05-23T02:18:21.212Z,12.10
2019-05-23T02:19:25.420Z,12.10
2019-05-23T02:20:28.514Z,12.10
2019-05-23T02:21:30.936Z,12.10
2019-05-23T02:22:33.857Z,12.00
2019-05-23T02:23:36.276Z,12.10
2019-05-23T02:24:39.032Z,12.00
2019-05-23T02:25:41.874Z,12.00
2019-05-23T02:26:46.225Z,12.00
2019-05-23T02:27:50.355Z,12.00
2019-05-23T02:28:53.601Z,12.00
2019-05-23T02:29:56.033Z,12.00
2019-05-23T02:31:00.542Z,12.00
2019-05-23T02:32:05.414Z,12.00
2019-05-23T02:33:08.584Z,12.00
2019-05-23T02:34:11.518Z,12.00
2019-05-23T02:35:14.583Z,12.00
2019-05-23T02:36:17.172Z,12.00
2019-05-23T02:37:34.214Z,12.00
2019-05-23T02:38:50.529Z,12.00
2019-05-23T02:40:03.114Z,12.00
2019-05-23T02:41:28.029Z,12.00
2019-05-23T02:42:47.519Z,11.90
2019-05-23T02:43:53.571Z,11.80
2019-05-23T02:44:57.224Z,11.70
2019-05-23T02:46:02.892Z,11.70
2019-05-23T02:47:24.355Z,11.70
2019-05-23T02:48:33.139Z,11.70
2019-05-23T02:49:36.518Z,11.70
2019-05-23T02:50:50.075Z,11.70
2019-05-23T02:51:55.058Z,11.80
2019-05-23T02:52:59.286Z,11.80
2019-05-23T02:54:04.189Z,11.90
2019-05-23T02:55:13.011Z,11.90
2019-05-23T02:56:17.902Z,11.90
2019-05-23T02:57:23.538Z,11.80
2019-05-23T02:58:51.357Z,11.80
2019-05-23T02:59:58.752Z,11.70
2019-05-23T03:01:45.553Z,11.70
2019-05-23T03:02:54.061Z,11.70
2019-05-23T03:04:00.994Z,11.70
2019-05-23T03:05:06.315Z,11.70
2019-05-23T03:06:16.477Z,11.70
2019-05-23T03:07:21.345Z,11.80
2019-05-23T03:08:24.239Z,11.80
2019-05-23T03:09:32.460Z,11.80
2019-05-23T03:11:01.535Z,11.80
2019-05-23T03:12:06.339Z,11.80
2019-05-23T03:13:10.528Z,11.80
2019-05-23T03:14:14.874Z,11.90
2019-05-23T03:15:18.732Z,11.80
2019-05-23T03:16:24.759Z,11.80
2019-05-23T03:17:30.283Z,11.80
2019-05-23T03:18:39.204Z,11.80
2019-05-23T03:19:57.244Z,11.80
2019-05-23T03:21:01.517Z,11.80
2019-05-23T03:22:31.113Z,11.80
2019-05-23T03:23:34.930Z,11.80
2019-05-23T03:24:38.442Z,11.80
2019-05-23T03:26:20.267Z,11.80
2019-05-23T03:27:24.163Z,11.80
2019-05-23T03:28:29.927Z,11.90
2019-05-23T03:29:33.803Z,11.80
2019-05-23T03:30:38.613Z,11.80
2019-05-23T03:31:46.726Z,11.80
2019-05-23T03:32:52.851Z,11.70
2019-05-23T03:33:55.453Z,11.70
2019-05-23T03:35:04.569Z,11.70
2019-05-23T03:36:08.114Z,11.70
2019-05-23T03:37:10.828Z,11.70
2019-05-23T03:38:14.350Z,11.70
2019-05-23T03:39:17.625Z,11.70
2019-05-23T03:40:22.336Z,11.50
2019-05-23T03:41:25.437Z,11.50
2019-05-23T03:42:28.464Z,11.50
2019-05-23T03:43:31.085Z,11.50
2019-05-23T03:44:33.741Z,11.40
2019-05-23T03:45:39.818Z,11.40
2019-05-23T03:46:46.176Z,11.40
2019-05-23T03:47:49.014Z,11.40
2019-05-23T03:48:52.628Z,11.40
2019-05-23T03:49:55.387Z,11.50
2019-05-23T03:51:00.276Z,11.50
2019-05-23T03:52:04.244Z,11.50
2019-05-23T03:53:09.669Z,11.50
2019-05-23T03:54:12.815Z,11.50
2019-05-23T03:55:15.538Z,11.60
2019-05-23T03:56:19.178Z,11.50
2019-05-23T03:57:25.623Z,11.60
2019-05-23T03:58:29.098Z,11.60
2019-05-23T03:59:32.712Z,11.60
2019-05-23T04:00:38.813Z,11.60
2019-05-23T04:01:48.626Z,11.60
2019-05-23T04:02:50.091Z,11.60
2019-05-23T04:03:54.733Z,11.50
2019-05-23T04:04:58.872Z,11.50
2019-05-23T04:06:01.925Z,11.50
2019-05-23T04:07:04.541Z,11.50
2019-05-23T04:08:07.110Z,11.50
2019-05-23T04:09:11.123Z,11.40
2019-05-23T04:10:13.904Z,11.50
2019-05-23T04:11:17.910Z,11.50
2019-05-23T04:12:20.936Z,11.50
2019-05-23T04:13:24.412Z,11.50
2019-05-23T04:14:27.765Z,11.60
2019-05-23T04:15:32.072Z,11.60
2019-05-23T04:16:34.498Z,11.60
2019-05-23T04:17:37.897Z,11.60
2019-05-23T04:18:40.325Z,11.60
2019-05-23T04:19:42.793Z,11.60
2019-05-23T04:20:46.020Z,11.60
2019-05-23T04:21:48.455Z,11.60
2019-05-23T04:22:51.017Z,11.60
2019-05-23T04:23:53.464Z,11.60
2019-05-23T04:25:01.154Z,11.60
2019-05-23T04:26:01.092Z,11.60
2019-05-23T04:27:03.542Z,11.60
2019-05-23T04:28:06.177Z,11.70
2019-05-23T04:29:09.817Z,11.70
2019-05-23T04:30:12.337Z,11.80
2019-05-23T04:31:14.855Z,11.80
2019-05-23T04:32:17.779Z,11.80
2019-05-23T04:33:20.956Z,11.70
2019-05-23T04:34:23.783Z,11.70
2019-05-23T04:35:27.417Z,11.70
2019-05-23T04:36:31.966Z,11.70
2019-05-23T04:37:34.508Z,11.80
2019-05-23T04:38:50.172Z,11.70
2019-05-23T04:39:53.209Z,11.70
2019-05-23T04:40:56.317Z,11.90
2019-05-23T04:41:59.575Z,11.80
2019-05-23T04:43:04.443Z,11.80
2019-05-23T04:44:08.740Z,11.80
2019-05-23T04:45:11.530Z,11.90
2019-05-23T04:46:14.474Z,11.90
2019-05-23T04:47:18.295Z,11.90
2019-05-23T04:48:20.695Z,11.90
2019-05-23T04:49:23.450Z,11.90
2019-05-23T04:50:25.907Z,11.90
2019-05-23T04:51:29.053Z,11.90
2019-05-23T04:52:32.074Z,11.90
2019-05-23T04:53:35.648Z,11.90
2019-05-23T04:54:40.114Z,12.00
2019-05-23T04:55:42.954Z,12.00
2019-05-23T04:56:45.415Z,12.00
2019-05-23T04:57:48.073Z,12.10
2019-05-23T04:58:51.806Z,12.10
2019-05-23T04:59:54.902Z,12.10
2019-05-23T05:00:57.619Z,12.10
2019-05-23T05:02:01.066Z,12.20
2019-05-23T05:03:05.279Z,12.20
2019-05-23T05:04:08.232Z,12.20
2019-05-23T05:05:11.655Z,12.30
2019-05-23T05:06:14.918Z,12.30
2019-05-23T05:07:17.685Z,12.30
2019-05-23T05:08:20.395Z,12.30
2019-05-23T05:09:28.795Z,12.30
2019-05-23T05:10:32.209Z,12.30
2019-05-23T05:11:34.836Z,12.30
2019-05-23T05:12:37.515Z,12.40
2019-05-23T05:13:41.492Z,12.50
2019-05-23T05:14:44.280Z,12.60
2019-05-23T05:15:47.228Z,12.70
2019-05-23T05:16:50.335Z,12.80
2019-05-23T05:17:52.796Z,13.10
2019-05-23T05:18:57.427Z,13.30
2019-05-23T05:20:00.187Z,13.20
2019-05-23T05:21:02.912Z,13.30
2019-05-23T05:22:05.463Z,13.30
2019-05-23T05:23:07.899Z,13.40
2019-05-23T05:24:10.310Z,13.30
2019-05-23T05:25:13.439Z,13.40
2019-05-23T05:26:21.749Z,13.40
2019-05-23T05:27:25.195Z,13.50
2019-05-23T05:28:29.448Z,13.90
2019-05-23T05:29:31.982Z,14.30
2019-05-23T05:30:35.366Z,14.50
2019-05-23T05:31:37.880Z,14.60
2019-05-23T05:32:45.323Z,14.90
2019-05-23T05:33:46.643Z,15.90
2019-05-23T05:34:49.173Z,17.20
2019-05-23T05:35:51.716Z,18.10
2019-05-23T05:36:54.464Z,18.90
2019-05-23T05:37:57.419Z,19.70
2019-05-23T05:38:59.963Z,20.50
2019-05-23T05:40:03.893Z,21.10
2019-05-23T05:41:07.250Z,21.50
2019-05-23T05:42:11.098Z,21.90
2019-05-23T05:43:14.443Z,22.40
2019-05-23T05:44:18.418Z,22.40
2019-05-23T05:45:21.430Z,22.60
2019-05-23T05:46:24.266Z,22.40
2019-05-23T05:47:27.373Z,22.40
2019-05-23T05:48:30.533Z,22.60
2019-05-23T05:49:34.407Z,22.50
2019-05-23T05:50:40.142Z,22.50
2019-05-23T05:51:44.235Z,22.40
2019-05-23T05:52:48.095Z,22.30
2019-05-23T05:53:53.529Z,21.60
2019-05-23T05:55:01.164Z,21.80
2019-05-23T05:56:09.594Z,21.70
2019-05-23T05:57:12.937Z,22.30
2019-05-23T05:58:15.753Z,22.80
2019-05-23T05:59:19.259Z,23.20
2019-05-23T06:00:36.641Z,23.40
2019-05-23T06:01:39.817Z,23.40
2019-05-23T06:03:00.803Z,22.70
2019-05-23T06:03:49.279Z,22.30
2019-05-23T06:04:52.309Z,22.50
2019-05-23T06:06:23.500Z,22.80
2019-05-23T06:07:36.577Z,22.40
2019-05-23T06:08:40.162Z,21.70
2019-05-23T06:09:42.988Z,21.60
2019-05-23T06:10:45.451Z,21.30
2019-05-23T06:11:47.865Z,21.10
2019-05-23T06:12:50.583Z,20.80
2019-05-23T06:13:53.619Z,20.60
2019-05-23T06:14:56.212Z,20.40
2019-05-23T06:15:58.684Z,20.30
2019-05-23T06:17:03.879Z,20.20
2019-05-23T06:18:06.401Z,20.00
2019-05-23T06:19:09.071Z,20.20
2019-05-23T06:20:12.167Z,20.40
2019-05-23T06:21:18.341Z,20.70
2019-05-23T06:22:21.701Z,20.70
2019-05-23T06:23:24.229Z,20.60
2019-05-23T06:24:41.683Z,20.30
2019-05-23T06:25:31.769Z,20.00
2019-05-23T06:26:34.256Z,20.00
2019-05-23T06:27:39.859Z,19.90
2019-05-23T06:28:43.127Z,19.70
2019-05-23T06:29:45.584Z,19.40
2019-05-23T06:30:49.132Z,19.30
2019-05-23T06:31:51.927Z,19.20
2019-05-23T06:32:54.633Z,19.00
2019-05-23T06:33:57.671Z,19.00
2019-05-23T06:35:00.302Z,19.10
2019-05-23T06:36:03.355Z,19.40
2019-05-23T06:37:07.870Z,19.60
2019-05-23T06:38:10.973Z,19.70
2019-05-23T06:39:15.275Z,19.80
2019-05-23T06:40:18.339Z,20.00
2019-05-23T06:41:22.975Z,20.10
2019-05-23T06:42:25.364Z,20.10
2019-05-23T06:43:28.702Z,20.50
2019-05-23T06:44:31.936Z,20.70
2019-05-23T06:45:34.353Z,21.00
2019-05-23T06:46:49.429Z,21.30
2019-05-23T06:47:57.677Z,21.60
2019-05-23T06:49:00.222Z,21.70
2019-05-23T06:50:06.819Z,22.00
2019-05-23T06:51:09.267Z,22.30
2019-05-23T06:52:13.199Z,22.40
2019-05-23T06:53:15.843Z,22.50
2019-05-23T06:54:18.455Z,22.70
2019-05-23T06:55:20.975Z,23.00
2019-05-23T06:56:24.229Z,23.00
2019-05-23T06:57:26.855Z,23.30
2019-05-23T06:58:29.612Z,23.20
2019-05-23T06:59:32.739Z,23.40
2019-05-23T07:00:35.299Z,23.50
2019-05-23T07:01:38.164Z,23.60
2019-05-23T07:02:41.330Z,23.50
2019-05-23T07:03:44.237Z,23.10
2019-05-23T07:04:47.244Z,23.20
2019-05-23T07:05:50.092Z,23.30
2019-05-23T07:06:52.669Z,23.30
2019-05-23T07:07:55.943Z,23.30
2019-05-23T07:08:58.894Z,23.30
2019-05-23T07:10:03.732Z,23.10
2019-05-23T07:11:06.273Z,23.10
2019-05-23T07:12:09.502Z,23.20
2019-05-23T07:13:12.087Z,22.90
2019-05-23T07:14:15.003Z,23.10
2019-05-23T07:15:17.885Z,22.90
2019-05-23T07:16:20.444Z,23.20
2019-05-23T07:17:25.263Z,23.10
2019-05-23T07:18:28.004Z,23.00
2019-05-23T07:19:30.562Z,22.80
2019-05-23T07:20:33.504Z,23.20
2019-05-23T07:21:35.929Z,23.20
2019-05-23T07:22:39.283Z,23.30
2019-05-23T07:23:41.823Z,23.40
2019-05-23T07:24:57.526Z,23.20
2019-05-23T07:25:48.608Z,23.20
2019-05-23T07:26:51.270Z,23.40
2019-05-23T07:27:56.175Z,23.40
2019-05-23T07:28:58.797Z,23.00
2019-05-23T07:30:03.530Z,23.10
2019-05-23T07:31:06.486Z,23.10
2019-05-23T07:32:09.132Z,23.30
2019-05-23T07:33:12.871Z,23.50
2019-05-23T07:34:15.790Z,23.70
2019-05-23T07:35:19.232Z,23.50
2019-05-23T07:36:21.794Z,23.50
2019-05-23T07:37:24.431Z,23.70
2019-05-23T07:38:27.243Z,23.70
2019-05-23T07:39:29.710Z,23.80
2019-05-23T07:40:32.455Z,23.60
2019-05-23T07:41:34.901Z,23.70
2019-05-23T07:42:37.328Z,23.50
2019-05-23T07:43:39.941Z,23.40
2019-05-23T07:44:48.325Z,23.50
2019-05-23T07:45:52.289Z,23.30
2019-05-23T07:46:54.720Z,23.00
2019-05-23T07:47:57.645Z,22.70
2019-05-23T07:49:00.143Z,22.80
2019-05-23T07:50:02.653Z,22.80
2019-05-23T07:51:05.358Z,22.80
2019-05-23T07:52:07.843Z,22.90
2019-05-23T07:53:13.197Z,22.60
2019-05-23T07:54:29.907Z,22.80
2019-05-23T07:55:36.712Z,23.00
2019-05-23T07:56:39.657Z,23.20
2019-05-23T07:57:42.493Z,23.50
2019-05-23T07:58:45.213Z,23.70
2019-05-23T07:59:48.069Z,23.70
2019-05-23T08:00:54.828Z,23.70
2019-05-23T08:02:12.065Z,23.80
2019-05-23T08:03:15.906Z,24.00
2019-05-23T08:04:21.792Z,23.90
2019-05-23T08:05:24.126Z,23.60
2019-05-23T08:06:27.169Z,23.80
2019-05-23T08:07:32.800Z,23.70
2019-05-23T08:08:35.279Z,23.80
2019-05-23T08:09:37.701Z,23.90
2019-05-23T08:10:40.116Z,23.90
2019-05-23T08:11:42.762Z,23.90
2019-05-23T08:12:45.630Z,24.10
2019-05-23T08:13:49.240Z,24.30
2019-05-23T08:14:51.747Z,24.20
2019-05-23T08:15:54.686Z,24.20
2019-05-23T08:16:57.564Z,24.40
2019-05-23T08:18:00.011Z,24.40
2019-05-23T08:19:02.668Z,24.40
2019-05-23T08:20:05.695Z,24.30
2019-05-23T08:21:08.625Z,24.40
2019-05-23T08:22:11.515Z,24.50
2019-05-23T08:23:14.540Z,24.50
2019-05-23T08:24:17.384Z,24.60
2019-05-23T08:25:19.802Z,24.60
2019-05-23T08:26:23.045Z,24.60
2019-05-23T08:27:25.700Z,24.70
2019-05-23T08:28:28.620Z,24.90
2019-05-23T08:29:33.123Z,24.90
2019-05-23T08:30:35.954Z,24.80
2019-05-23T08:31:38.843Z,24.90
2019-05-23T08:32:42.350Z,25.00
2019-05-23T08:33:46.102Z,24.90
2019-05-23T08:34:49.467Z,25.10
2019-05-23T08:35:54.526Z,25.20
2019-05-23T08:36:57.546Z,25.20
2019-05-23T08:38:00.342Z,25.30
2019-05-23T08:39:05.641Z,25.30
2019-05-23T08:40:09.161Z,25.40
2019-05-23T08:41:14.112Z,25.50
2019-05-23T08:42:18.240Z,25.50
2019-05-23T08:43:21.078Z,25.60
2019-05-23T08:44:23.970Z,25.60
2019-05-23T08:45:26.615Z,25.70
2019-05-23T08:46:29.467Z,25.70
2019-05-23T08:47:32.097Z,25.70
2019-05-23T08:48:34.548Z,25.50
2019-05-23T08:49:37.328Z,25.40
2019-05-23T08:50:40.418Z,25.40
2019-05-23T08:51:43.275Z,25.40
2019-05-23T08:52:45.751Z,25.40
2019-05-23T08:53:48.258Z,25.50
2019-05-23T08:54:55.226Z,25.60
2019-05-23T08:55:57.942Z,25.80
2019-05-23T08:57:00.512Z,25.80
2019-05-23T08:58:04.001Z,25.60
2019-05-23T08:59:07.088Z,25.50
2019-05-23T09:00:10.037Z,25.50
2019-05-23T09:01:12.778Z,25.70
2019-05-23T09:02:16.310Z,25.80
2019-05-23T09:03:19.530Z,25.80
2019-05-23T09:04:22.740Z,25.80
2019-05-23T09:05:27.502Z,25.80
2019-05-23T09:06:30.189Z,25.70
2019-05-23T09:07:32.709Z,25.70
2019-05-23T09:08:35.966Z,25.70
2019-05-23T09:09:38.716Z,25.80
2019-05-23T09:10:41.376Z,26.00
2019-05-23T09:11:44.581Z,26.10
2019-05-23T09:12:47.894Z,26.00
2019-05-23T09:13:50.401Z,26.00
2019-05-23T09:14:53.299Z,25.90
2019-05-23T09:15:56.131Z,25.90
2019-05-23T09:17:00.356Z,26.10
2019-05-23T09:18:04.963Z,26.20
2019-05-23T09:19:08.191Z,26.30
2019-05-23T09:20:12.327Z,26.40
2019-05-23T09:21:14.743Z,26.40
2019-05-23T09:22:17.378Z,26.20
2019-05-23T09:23:20.331Z,26.20
2019-05-23T09:24:22.840Z,26.40
2019-05-23T09:25:25.269Z,26.20
2019-05-23T09:26:27.850Z,26.00
2019-05-23T09:27:30.290Z,25.60
2019-05-23T09:28:34.529Z,25.40
2019-05-23T09:29:37.197Z,25.50
2019-05-23T09:30:39.650Z,25.70
2019-05-23T09:31:42.260Z,25.80
2019-05-23T09:32:44.803Z,26.00
2019-05-23T09:33:47.316Z,25.80
2019-05-23T09:34:50.021Z,25.70
2019-05-23T09:35:52.453Z,25.70
2019-05-23T09:36:54.895Z,25.90
2019-05-23T09:37:57.738Z,26.00
2019-05-23T09:39:00.214Z,26.20
2019-05-23T09:40:05.082Z,26.30
2019-05-23T09:41:07.945Z,26.20
2019-05-23T09:42:12.141Z,26.30
2019-05-23T09:43:16.273Z,26.50
2019-05-23T09:44:19.254Z,26.50
2019-05-23T09:45:22.299Z,26.50
2019-05-23T09:46:25.191Z,26.30
2019-05-23T09:47:27.903Z,26.20
2019-05-23T09:48:30.847Z,26.30
2019-05-23T09:49:33.327Z,26.50
2019-05-23T09:50:35.893Z,26.50
2019-05-23T09:51:38.634Z,26.40
2019-05-23T09:52:41.699Z,26.40
2019-05-23T09:53:47.342Z,26.40
2019-05-23T09:54:48.610Z,26.10
2019-05-23T09:55:51.440Z,26.00
2019-05-23T09:56:54.186Z,26.00
2019-05-23T09:57:56.602Z,25.80
2019-05-23T09:58:59.336Z,25.50
2019-05-23T10:00:01.938Z,25.50
2019-05-23T10:01:05.281Z,25.40
2019-05-23T10:02:08.306Z,25.20
2019-05-23T10:03:11.135Z,25.10
2019-05-23T10:04:13.617Z,24.90
2019-05-23T10:05:16.458Z,24.80
2019-05-23T10:06:19.345Z,24.70
2019-05-23T10:07:22.073Z,24.60
2019-05-23T10:08:24.703Z,24.60
2019-05-23T10:09:27.467Z,24.50
2019-05-23T10:10:31.127Z,24.20
2019-05-23T10:11:33.917Z,24.20
2019-05-23T10:12:36.662Z,24.20
2019-05-23T10:13:39.729Z,24.20
2019-05-23T10:14:42.451Z,23.90
2019-05-23T10:15:50.630Z,23.80
2019-05-23T10:16:53.242Z,23.70
2019-05-23T10:17:55.651Z,23.70
2019-05-23T10:18:58.370Z,23.60
2019-05-23T10:20:00.866Z,23.60
2019-05-23T10:21:04.721Z,23.50
2019-05-23T10:22:07.198Z,23.40
2019-05-23T10:23:09.675Z,23.30
2019-05-23T10:24:12.605Z,23.20
2019-05-23T10:25:17.479Z,23.20
2019-05-23T10:26:20.425Z,23.20
2019-05-23T10:27:23.486Z,23.00
2019-05-23T10:28:25.986Z,23.00
2019-05-23T10:29:28.403Z,23.00
2019-05-23T10:30:32.629Z,22.90
2019-05-23T10:31:35.077Z,23.00
2019-05-23T10:32:37.549Z,23.00
2019-05-23T10:33:40.127Z,22.90
2019-05-23T10:34:42.904Z,22.90
2019-05-23T10:35:59.766Z,22.90
2019-05-23T10:36:50.085Z,22.90
2019-05-23T10:37:52.705Z,22.80
2019-05-23T10:38:55.436Z,22.70
2019-05-23T10:39:57.861Z,22.70
2019-05-23T10:41:00.405Z,22.60
2019-05-23T10:42:02.911Z,22.60
2019-05-23T10:43:05.515Z,22.60
2019-05-23T10:44:08.531Z,22.60
2019-05-23T10:45:12.255Z,22.50
2019-05-23T10:46:14.827Z,22.50
2019-05-23T10:47:18.456Z,22.40
2019-05-23T10:48:21.810Z,22.30
2019-05-23T10:49:24.455Z,22.40
2019-05-23T10:50:41.971Z,22.40
2019-05-23T10:51:32.338Z,22.40
2019-05-23T10:52:35.221Z,22.40
2019-05-23T10:53:37.659Z,22.40
2019-05-23T10:54:40.205Z,22.30
2019-05-23T10:55:43.001Z,22.30
2019-05-23T10:56:45.376Z,22.20
2019-05-23T10:57:47.803Z,22.20
2019-05-23T10:58:50.211Z,22.10
2019-05-23T10:59:52.661Z,22.00
2019-05-23T11:00:56.595Z,21.90
2019-05-23T11:01:59.063Z,21.90
2019-05-23T11:03:01.470Z,21.90
2019-05-23T11:04:04.222Z,21.80
2019-05-23T11:05:13.218Z,21.70
2019-05-23T11:06:16.471Z,21.70
2019-05-23T11:07:17.317Z,21.60
2019-05-23T11:08:20.282Z,21.60
2019-05-23T11:09:36.679Z,21.50
2019-05-23T11:10:27.666Z,21.50
2019-05-23T11:11:30.478Z,21.40
2019-05-23T11:12:32.938Z,21.40
2019-05-23T11:13:35.386Z,21.30
2019-05-23T11:14:38.120Z,21.30
2019-05-23T11:15:41.753Z,21.30
2019-05-23T11:16:44.198Z,21.20
2019-05-23T11:17:46.591Z,21.20
2019-05-23T11:18:49.459Z,21.30
2019-05-23T11:20:54.247Z,21.20
2019-05-23T11:21:56.875Z,21.20
2019-05-23T11:22:59.352Z,21.10
2019-05-23T11:24:04.157Z,21.10
2019-05-23T11:25:09.208Z,20.90
2019-05-23T11:26:12.303Z,21.00
2019-05-23T11:27:15.141Z,21.00
2019-05-23T11:28:18.032Z,21.10
2019-05-23T11:29:20.496Z,21.00
2019-05-23T11:30:35.887Z,21.00
2019-05-23T11:31:38.363Z,20.90
2019-05-23T11:32:42.764Z,20.90
2019-05-23T11:33:45.222Z,20.90
2019-05-23T11:34:47.622Z,20.90
2019-05-23T11:35:50.490Z,20.90
2019-05-23T11:36:52.907Z,20.80
2019-05-23T11:37:55.289Z,20.80
2019-05-23T11:38:58.028Z,20.80
2019-05-23T11:40:00.446Z,20.80
2019-05-23T11:41:03.439Z,20.90
2019-05-23T11:42:06.083Z,20.80
2019-05-23T11:43:08.701Z,20.80
2019-05-23T11:44:11.302Z,20.70
2019-05-23T11:45:14.338Z,20.80
2019-05-23T11:46:24.933Z,20.80
2019-05-23T11:47:31.371Z,20.70
2019-05-23T11:48:34.018Z,20.70
2019-05-23T11:49:36.865Z,20.70
2019-05-23T11:50:39.425Z,20.80
2019-05-23T11:51:42.446Z,20.80
2019-05-23T11:52:45.490Z,20.70
2019-05-23T11:54:06.017Z,20.60
2019-05-23T11:54:53.517Z,20.70
2019-05-23T11:55:56.267Z,20.70
2019-05-23T11:56:59.537Z,20.80
2019-05-23T11:58:02.418Z,20.80
2019-05-23T11:59:05.520Z,20.80
2019-05-23T12:00:10.598Z,20.70
2019-05-23T12:01:48.361Z,20.70
2019-05-23T12:02:50.790Z,20.70
2019-05-23T12:03:57.328Z,20.60
2019-05-23T12:05:01.351Z,20.50
2019-05-23T12:06:05.738Z,20.50
2019-05-23T12:07:13.477Z,20.60
2019-05-23T12:08:15.896Z,20.60
2019-05-23T12:09:18.848Z,20.60
2019-05-23T12:10:21.353Z,20.60
2019-05-23T12:11:24.497Z,20.50
2019-05-23T12:12:27.132Z,20.50
2019-05-23T12:13:30.251Z,20.60
2019-05-23T12:14:33.270Z,20.50
2019-05-23T12:15:37.822Z,20.50
2019-05-23T12:16:40.371Z,20.50
2019-05-23T12:17:43.005Z,20.50
2019-05-23T12:18:45.648Z,20.50
2019-05-23T12:19:48.386Z,20.50
2019-05-23T12:20:50.803Z,20.50
2019-05-23T12:21:53.811Z,20.50
2019-05-23T12:22:56.275Z,20.50
2019-05-23T12:23:58.752Z,20.50
2019-05-23T12:25:20.119Z,20.50
2019-05-23T12:26:05.482Z,20.50
2019-05-23T12:27:08.432Z,20.40
2019-05-23T12:28:12.660Z,20.40
2019-05-23T12:29:15.297Z,20.40
2019-05-23T12:30:19.435Z,20.40
2019-05-23T12:31:22.926Z,20.40
2019-05-23T12:32:25.453Z,20.40
2019-05-23T12:33:27.923Z,20.40
2019-05-23T12:34:30.665Z,20.40
2019-05-23T12:35:33.256Z,20.40
2019-05-23T12:36:36.286Z,20.40
2019-05-23T12:37:38.778Z,20.50
2019-05-23T12:38:41.390Z,20.50
2019-05-23T12:39:44.454Z,20.50
2019-05-23T12:40:46.873Z,20.40
2019-05-23T12:41:49.618Z,20.30
2019-05-23T12:42:52.333Z,20.30
2019-05-23T12:43:54.830Z,20.30
2019-05-23T12:44:57.422Z,20.30
2019-05-23T12:45:59.885Z,20.30
2019-05-23T12:47:04.190Z,20.20
2019-05-23T12:48:13.140Z,20.30
2019-05-23T12:49:24.364Z,20.30
2019-05-23T12:50:29.747Z,20.30
2019-05-23T12:51:34.127Z,20.30
2019-05-23T12:52:38.371Z,20.30
2019-05-23T12:53:40.893Z,20.30
2019-05-23T12:54:43.400Z,20.30
2019-05-23T12:55:45.896Z,20.40
2019-05-23T12:56:49.147Z,20.30
2019-05-23T12:57:54.737Z,20.30
2019-05-23T12:58:57.958Z,20.30
2019-05-23T13:00:00.478Z,20.30
2019-05-23T13:01:04.187Z,20.30
2019-05-23T13:02:11.045Z,20.30
2019-05-23T13:03:14.953Z,20.30
2019-05-23T13:04:17.832Z,20.30
2019-05-23T13:05:48.909Z,20.30
2019-05-23T13:07:06.375Z,20.20
2019-05-23T13:08:13.130Z,20.20
2019-05-23T13:09:15.733Z,20.20
2019-05-23T13:10:23.756Z,20.30
2019-05-23T13:11:24.080Z,20.30
2019-05-23T13:12:26.929Z,20.30
2019-05-23T13:13:31.214Z,20.20
2019-05-23T13:14:33.642Z,20.20
2019-05-23T13:15:36.364Z,20.20
2019-05-23T13:16:39.082Z,20.20
2019-05-23T13:17:42.419Z,20.20
2019-05-23T13:18:44.970Z,20.30
2019-05-23T13:19:47.808Z,20.30
2019-05-23T13:20:50.538Z,20.30
2019-05-23T13:21:53.055Z,20.20
2019-05-23T13:22:55.841Z,20.20
2019-05-23T13:23:58.656Z,20.20
2019-05-23T13:25:01.307Z,20.20
2019-05-23T13:26:05.986Z,20.10
2019-05-23T13:27:09.827Z,20.20
2019-05-23T13:28:12.406Z,20.20
2019-05-23T13:29:15.143Z,20.30
2019-05-23T13:30:19.295Z,20.20
2019-05-23T13:31:21.693Z,20.20
2019-05-23T13:32:25.228Z,20.30
2019-05-23T13:33:27.750Z,20.30
2019-05-23T13:34:30.551Z,20.30
2019-05-23T13:35:33.644Z,20.40
2019-05-23T13:36:36.153Z,20.50
2019-05-23T13:37:52.929Z,20.50
2019-05-23T13:38:44.037Z,20.60
2019-05-23T13:39:46.733Z,20.50
2019-05-23T13:40:49.356Z,20.50
2019-05-23T13:41:52.097Z,20.40
2019-05-23T13:43:06.654Z,20.40
2019-05-23T13:44:33.939Z,20.40
2019-05-23T13:45:26.951Z,20.40
2019-05-23T13:46:29.664Z,20.40
2019-05-23T13:47:32.085Z,20.40
2019-05-23T13:48:34.744Z,20.40
2019-05-23T13:49:37.191Z,20.40